createdAt,value
2022-12-26T00:03:19.379Z,9.48
2022-12-26T00:08:21.505Z,9.53
2022-12-26T00:13:39.466Z,9.48
2022-12-26T00:18:42.609Z,9.60
2022-12-26T00:23:45.237Z,9.52
2022-12-26T00:28:46.254Z,9.64
2022-12-26T00:33:47.709Z,9.61
2022-12-26T00:38:50.893Z,9.61
2022-12-26T00:43:52.295Z,9.72
2022-12-26T00:48:53.136Z,9.75
2022-12-26T00:53:55.167Z,9.68
2022-12-26T00:58:55.893Z,9.67
2022-12-26T01:03:58.779Z,9.65
2022-12-26T01:09:00.943Z,9.61
2022-12-26T01:14:01.603Z,9.55
2022-12-26T01:19:02.286Z,9.58
2022-12-26T01:24:04.679Z,9.51
2022-12-26T01:29:05.386Z,9.59
2022-12-26T01:34:06.047Z,9.56
2022-12-26T01:39:08.055Z,9.53
2022-12-26T01:44:47.405Z,9.55
2022-12-26T01:49:51.643Z,9.49
2022-12-26T01:54:55.916Z,9.49
2022-12-26T01:59:58.986Z,9.51
2022-12-26T02:05:17.089Z,9.51
2022-12-26T02:10:25.627Z,9.59
2022-12-26T02:15:26.970Z,9.48
2022-12-26T02:20:30.146Z,9.47
2022-12-26T02:25:51.506Z,9.48
2022-12-26T02:30:58.208Z,9.40
2022-12-26T02:36:15.847Z,9.39
2022-12-26T02:41:26.754Z,9.43
2022-12-26T02:46:51.399Z,9.52
2022-12-26T02:52:18.853Z,9.49
2022-12-26T02:57:42.541Z,9.48
2022-12-26T03:03:08.012Z,9.45
2022-12-26T03:08:31.315Z,9.56
2022-12-26T03:13:37.134Z,9.57
2022-12-26T03:18:57.881Z,9.52
2022-12-26T03:24:00.817Z,9.60
2022-12-26T03:29:18.874Z,9.54
2022-12-26T03:34:21.370Z,9.59
2022-12-26T03:39:54.087Z,9.62
2022-12-26T03:45:19.065Z,9.71
2022-12-26T03:51:02.473Z,9.65
2022-12-26T03:56:26.628Z,9.75
2022-12-26T04:01:48.432Z,9.75
2022-12-26T04:07:11.666Z,9.53
2022-12-26T04:12:36.210Z,9.53
2022-12-26T04:18:06.082Z,9.53
2022-12-26T04:23:32.350Z,9.49
2022-12-26T04:28:50.957Z,9.54
2022-12-26T04:34:12.179Z,9.45
2022-12-26T04:39:35.395Z,9.45
2022-12-26T04:44:37.892Z,9.68
2022-12-26T04:50:01.725Z,9.63
2022-12-26T04:55:03.908Z,10.08
2022-12-26T05:00:06.254Z,11.16
2022-12-26T05:05:25.015Z,11.96
2022-12-26T05:10:28.971Z,12.17
2022-12-26T05:15:49.716Z,12.26
2022-12-26T05:21:07.952Z,12.42
2022-12-26T05:26:33.998Z,12.52
2022-12-26T05:31:36.876Z,12.46
2022-12-26T05:36:40.720Z,12.44
2022-12-26T05:41:42.876Z,12.59
2022-12-26T05:46:43.695Z,12.65
2022-12-26T05:51:44.369Z,12.59
2022-12-26T05:56:49.509Z,12.61
2022-12-26T06:01:50.489Z,12.67
2022-12-26T06:06:52.283Z,12.63
2022-12-26T06:11:54.272Z,12.61
2022-12-26T06:16:55.105Z,12.57
2022-12-26T06:21:55.839Z,12.55
2022-12-26T06:26:57.816Z,12.51
2022-12-26T06:31:58.562Z,12.32
2022-12-26T06:36:59.512Z,12.38
2022-12-26T06:42:01.526Z,12.35
2022-12-26T06:47:03.206Z,12.24
2022-12-26T06:52:03.986Z,12.31
2022-12-26T06:57:06.232Z,12.47
2022-12-26T07:02:07.348Z,12.49
2022-12-26T07:07:08.100Z,12.47
2022-12-26T07:12:10.112Z,12.38
2022-12-26T07:17:11.261Z,12.50
2022-12-26T07:22:11.927Z,12.42
2022-12-26T07:27:13.951Z,12.51
2022-12-26T07:32:14.726Z,12.24
2022-12-26T07:37:15.471Z,12.41
2022-12-26T07:42:17.474Z,12.14
2022-12-26T07:47:18.129Z,12.19
2022-12-26T07:52:19.913Z,12.42
2022-12-26T07:57:47.332Z,12.35
2022-12-26T08:02:42.714Z,12.33
2022-12-26T08:07:43.491Z,12.36
2022-12-26T08:12:45.522Z,12.43
2022-12-26T08:17:46.235Z,12.42
2022-12-26T08:22:46.963Z,12.61
2022-12-26T08:27:49.031Z,12.74
2022-12-26T08:32:51.546Z,12.86
2022-12-26T08:37:52.197Z,13.05
2022-12-26T08:43:12.217Z,13.22
2022-12-26T08:48:16.023Z,13.17
2022-12-26T08:53:16.758Z,13.25
2022-12-26T08:58:18.806Z,13.29
2022-12-26T09:03:20.604Z,13.28
2022-12-26T09:08:21.361Z,13.29
2022-12-26T09:13:23.858Z,13.41
2022-12-26T09:18:24.812Z,13.46
2022-12-26T09:23:25.485Z,13.37
2022-12-26T09:28:27.643Z,13.56
2022-12-26T09:33:28.377Z,13.73
2022-12-26T09:38:30.176Z,14.00
2022-12-26T09:43:54.050Z,14.12
2022-12-26T09:49:00.238Z,14.03
2022-12-26T09:54:04.939Z,13.92
2022-12-26T09:59:14.433Z,13.88
2022-12-26T10:04:28.898Z,13.80
2022-12-26T10:09:51.743Z,13.74
2022-12-26T10:15:00.131Z,13.73
2022-12-26T10:20:13.392Z,13.79
2022-12-26T10:25:19.337Z,13.67
2022-12-26T10:30:24.609Z,13.51
2022-12-26T10:35:32.128Z,13.52
2022-12-26T10:40:41.792Z,13.63
2022-12-26T10:45:50.335Z,13.65
2022-12-26T10:50:51.261Z,13.66
2022-12-26T10:55:52.020Z,13.68
2022-12-26T11:00:54.124Z,13.71
2022-12-26T11:06:07.551Z,13.80
2022-12-26T11:11:14.073Z,13.83
2022-12-26T11:16:26.504Z,13.94
2022-12-26T11:21:29.372Z,14.05
2022-12-26T11:26:30.600Z,14.03
2022-12-26T11:31:33.090Z,14.06
2022-12-26T11:36:34.317Z,14.09
2022-12-26T11:41:39.913Z,14.09
2022-12-26T11:46:47.042Z,14.13
2022-12-26T11:51:54.144Z,13.92
2022-12-26T11:57:11.942Z,13.94
2022-12-26T12:02:29.441Z,13.83
2022-12-26T12:07:41.386Z,13.93
2022-12-26T12:12:48.337Z,13.71
2022-12-26T12:17:59.959Z,13.52
2022-12-26T12:23:21.551Z,13.46
2022-12-26T12:28:52.863Z,13.41
2022-12-26T12:34:03.494Z,13.30
2022-12-26T12:39:13.906Z,13.29
2022-12-26T12:44:23.006Z,13.23
2022-12-26T12:49:38.964Z,13.27
2022-12-26T12:55:19.783Z,13.24
2022-12-26T13:00:23.647Z,13.20
2022-12-26T13:05:39.346Z,13.10
2022-12-26T13:10:49.470Z,12.97
2022-12-26T13:15:55.528Z,10.81
2022-12-26T13:21:01.972Z,10.02
2022-12-26T13:26:10.595Z,9.60
2022-12-26T13:31:11.537Z,9.43
2022-12-26T13:36:38.133Z,9.32
2022-12-26T13:41:58.542Z,9.25
2022-12-26T13:47:00.767Z,9.33
2022-12-26T13:52:32.332Z,9.28
2022-12-26T13:57:40.204Z,9.33
2022-12-26T14:03:19.453Z,9.39
2022-12-26T14:08:33.268Z,9.42
2022-12-26T14:13:52.470Z,9.35
2022-12-26T14:19:01.658Z,9.40
2022-12-26T14:24:18.280Z,9.39
2022-12-26T14:29:26.050Z,9.34
2022-12-26T14:34:40.206Z,9.33
2022-12-26T14:39:58.642Z,9.36
2022-12-26T14:45:01.450Z,9.22
2022-12-26T14:50:35.865Z,9.32
2022-12-26T14:55:52.266Z,9.25
2022-12-26T15:00:54.306Z,9.26
2022-12-26T15:06:02.658Z,9.32
2022-12-26T15:11:52.881Z,9.24
2022-12-26T15:17:16.001Z,9.28
2022-12-26T15:22:46.064Z,9.19
2022-12-26T15:28:23.619Z,9.37
2022-12-26T15:33:32.781Z,9.37
2022-12-26T15:38:41.356Z,9.41
2022-12-26T15:44:02.608Z,9.47
2022-12-26T15:49:32.888Z,9.30
2022-12-26T15:55:03.025Z,9.22
2022-12-26T16:00:13.596Z,9.17
2022-12-26T16:05:34.565Z,9.24
2022-12-26T16:10:36.814Z,9.23
2022-12-26T16:15:46.547Z,9.29
2022-12-26T16:21:09.146Z,9.33
2022-12-26T16:26:18.472Z,9.24
2022-12-26T16:31:22.253Z,9.30
2022-12-26T16:36:26.339Z,9.26
2022-12-26T16:41:29.367Z,9.18
2022-12-26T16:46:31.845Z,8.99
2022-12-26T16:51:41.472Z,8.85
2022-12-26T16:56:42.631Z,9.00
2022-12-26T17:01:47.771Z,9.06
2022-12-26T17:06:53.181Z,9.01
2022-12-26T17:11:57.078Z,9.14
2022-12-26T17:16:59.476Z,9.19
2022-12-26T17:22:21.408Z,9.23
2022-12-26T17:27:24.280Z,9.22
2022-12-26T17:32:34.979Z,9.30
2022-12-26T17:37:37.576Z,9.29
2022-12-26T17:42:45.434Z,9.37
2022-12-26T17:47:46.606Z,9.45
2022-12-26T17:52:49.314Z,9.56
2022-12-26T17:57:50.024Z,9.51
2022-12-26T18:02:50.913Z,9.60
2022-12-26T18:07:53.543Z,9.76
2022-12-26T18:12:54.354Z,10.00
2022-12-26T18:17:55.374Z,10.16
2022-12-26T18:22:58.065Z,10.16
2022-12-26T18:28:00.436Z,10.16
2022-12-26T18:33:01.135Z,10.27
2022-12-26T18:38:03.285Z,10.36
2022-12-26T18:43:05.277Z,10.37
2022-12-26T18:48:07.713Z,10.28
2022-12-26T18:53:09.786Z,10.16
2022-12-26T18:58:11.309Z,10.24
2022-12-26T19:03:12.051Z,10.14
2022-12-26T19:08:14.091Z,10.01
2022-12-26T19:13:15.662Z,9.84
2022-12-26T19:18:16.760Z,9.83
2022-12-26T19:23:18.799Z,9.87
2022-12-26T19:28:19.512Z,9.83
2022-12-26T19:33:20.230Z,9.84
2022-12-26T19:38:22.272Z,9.81
2022-12-26T19:43:22.939Z,9.77
2022-12-26T19:48:23.688Z,9.75
2022-12-26T19:53:25.716Z,9.84
2022-12-26T19:58:30.912Z,9.83
2022-12-26T20:03:31.610Z,9.85
2022-12-26T20:08:33.698Z,9.83
2022-12-26T20:13:35.111Z,9.86
2022-12-26T20:18:36.497Z,9.84
2022-12-26T20:23:38.591Z,9.45
2022-12-26T20:28:40.194Z,8.34
2022-12-26T20:33:43.358Z,7.83
2022-12-26T20:38:46.307Z,7.57
2022-12-26T20:43:48.658Z,7.40
2022-12-26T20:48:49.963Z,7.36
2022-12-26T20:53:52.577Z,7.28
2022-12-26T20:58:53.400Z,7.22
2022-12-26T21:03:55.617Z,7.27
2022-12-26T21:08:58.222Z,7.25
2022-12-26T21:14:01.188Z,7.25
2022-12-26T21:19:02.308Z,7.29
2022-12-26T21:24:07.330Z,7.30
2022-12-26T21:29:09.863Z,7.22
2022-12-26T21:34:13.471Z,7.17
2022-12-26T21:39:15.813Z,7.03
2022-12-26T21:44:16.656Z,7.01
2022-12-26T21:49:17.352Z,6.96
2022-12-26T21:54:40.023Z,6.84
2022-12-26T21:59:58.116Z,6.66
2022-12-26T22:04:59.389Z,6.44
2022-12-26T22:10:01.497Z,6.27
2022-12-26T22:15:02.294Z,6.06
2022-12-26T22:20:02.988Z,5.83
2022-12-26T22:25:05.678Z,5.64
2022-12-26T22:30:07.112Z,5.38
2022-12-26T22:35:13.239Z,5.24
2022-12-26T22:40:18.739Z,5.20
2022-12-26T22:45:19.513Z,5.02
2022-12-26T22:50:20.192Z,4.94
2022-12-26T22:55:22.213Z,4.97
2022-12-26T23:00:22.879Z,4.96
2022-12-26T23:05:24.138Z,4.99
2022-12-26T23:10:27.128Z,4.94
2022-12-26T23:15:29.724Z,4.98
2022-12-26T23:20:53.250Z,4.96
2022-12-26T23:25:55.245Z,4.97
2022-12-26T23:30:57.101Z,4.88
2022-12-26T23:35:58.099Z,4.74
2022-12-26T23:41:00.158Z,4.44
2022-12-26T23:46:01.395Z,4.32
2022-12-26T23:51:03.433Z,4.28
2022-12-26T23:56:08.341Z,4.25
